sensor_id;sensor_type;location;lat;lon;timestamp;temperature;humidity
13673;DHT22;6909;52.202;9.876;2023-06-14T00:01:34;13.00;1.00
13673;DHT22;6909;52.202;9.876;2023-06-14T00:04:01;13.00;1.00
13673;DHT22;6909;52.202;9.876;2023-06-14T00:06:29;12.90;1.00
13673;DHT22;6909;52.202;9.876;2023-06-14T00:08:55;12.90;1.00
13673;DHT22;6909;52.202;9.876;2023-06-14T00:11:22;12.90;1.00
13673;DHT22;6909;52.202;9.876;2023-06-14T00:13:50;12.80;1.00
13673;DHT22;6909;52.202;9.876;2023-06-14T00:16:17;12.90;1.00
13673;DHT22;6909;52.202;9.876;2023-06-14T00:18:44;12.90;1.00
13673;DHT22;6909;52.202;9.876;2023-06-14T00:21:11;13.10;1.00
13673;DHT22;6909;52.202;9.876;2023-06-14T00:23:38;13.00;1.00
13673;DHT22;6909;52.202;9.876;2023-06-14T00:26:04;13.00;1.00
13673;DHT22;6909;52.202;9.876;2023-06-14T00:28:31;12.90;1.00
13673;DHT22;6909;52.202;9.876;2023-06-14T00:30:59;12.90;1.00
13673;DHT22;6909;52.202;9.876;2023-06-14T00:33:26;12.90;1.00
13673;DHT22;6909;52.202;9.876;2023-06-14T00:35:52;12.90;1.00
13673;DHT22;6909;52.202;9.876;2023-06-14T00:38:19;12.90;1.00
13673;DHT22;6909;52.202;9.876;2023-06-14T00:40:46;12.80;1.00
13673;DHT22;6909;52.202;9.876;2023-06-14T00:43:13;12.80;1.00
13673;DHT22;6909;52.202;9.876;2023-06-14T00:45:40;12.70;1.00
13673;DHT22;6909;52.202;9.876;2023-06-14T00:48:08;12.60;1.00
13673;DHT22;6909;52.202;9.876;2023-06-14T00:50:35;12.70;1.00
13673;DHT22;6909;52.202;9.876;2023-06-14T00:53:04;12.70;1.00
13673;DHT22;6909;52.202;9.876;2023-06-14T00:55:31;12.60;1.00
13673;DHT22;6909;52.202;9.876;2023-06-14T00:57:58;12.90;1.00
13673;DHT22;6909;52.202;9.876;2023-06-14T01:00:25;12.80;1.00
13673;DHT22;6909;52.202;9.876;2023-06-14T01:02:54;12.80;1.00
13673;DHT22;6909;52.202;9.876;2023-06-14T01:05:23;12.80;1.00
13673;DHT22;6909;52.202;9.876;2023-06-14T01:08:00;12.70;1.00
13673;DHT22;6909;52.202;9.876;2023-06-14T01:10:37;12.50;1.00
13673;DHT22;6909;52.202;9.876;2023-06-14T01:13:12;12.30;1.00
13673;DHT22;6909;52.202;9.876;2023-06-14T01:15:39;12.30;15.70
13673;DHT22;6909;52.202;9.876;2023-06-14T01:18:07;12.40;26.70
13673;DHT22;6909;52.202;9.876;2023-06-14T01:20:44;12.40;33.30
13673;DHT22;6909;52.202;9.876;2023-06-14T01:23:16;12.30;38.90
13673;DHT22;6909;52.202;9.876;2023-06-14T01:25:42;12.10;55.10
13673;DHT22;6909;52.202;9.876;2023-06-14T01:28:11;12.00;83.60
13673;DHT22;6909;52.202;9.876;2023-06-14T01:30:39;11.90;97.60
13673;DHT22;6909;52.202;9.876;2023-06-14T01:33:11;11.80;99.90
13673;DHT22;6909;52.202;9.876;2023-06-14T01:35:38;11.60;99.90
13673;DHT22;6909;52.202;9.876;2023-06-14T01:38:06;11.50;99.90
13673;DHT22;6909;52.202;9.876;2023-06-14T01:40:35;11.50;99.90
13673;DHT22;6909;52.202;9.876;2023-06-14T01:43:03;11.40;99.90
13673;DHT22;6909;52.202;9.876;2023-06-14T01:45:31;11.30;99.90
13673;DHT22;6909;52.202;9.876;2023-06-14T01:47:58;11.30;99.90
13673;DHT22;6909;52.202;9.876;2023-06-14T01:50:28;11.30;99.90
13673;DHT22;6909;52.202;9.876;2023-06-14T01:52:55;11.30;99.90
13673;DHT22;6909;52.202;9.876;2023-06-14T01:55:22;11.30;99.90
13673;DHT22;6909;52.202;9.876;2023-06-14T01:57:51;11.40;99.90
13673;DHT22;6909;52.202;9.876;2023-06-14T02:00:18;11.70;99.90
13673;DHT22;6909;52.202;9.876;2023-06-14T02:02:45;11.60;99.90
13673;DHT22;6909;52.202;9.876;2023-06-14T02:05:12;11.70;99.90
13673;DHT22;6909;52.202;9.876;2023-06-14T02:07:38;11.80;99.90
13673;DHT22;6909;52.202;9.876;2023-06-14T02:10:06;11.90;99.90
13673;DHT22;6909;52.202;9.876;2023-06-14T02:12:33;12.00;99.90
13673;DHT22;6909;52.202;9.876;2023-06-14T02:15:01;12.00;99.90
13673;DHT22;6909;52.202;9.876;2023-06-14T02:17:29;12.10;99.90
13673;DHT22;6909;52.202;9.876;2023-06-14T02:19:56;12.20;99.90
13673;DHT22;6909;52.202;9.876;2023-06-14T02:22:23;12.10;99.90
13673;DHT22;6909;52.202;9.876;2023-06-14T02:24:50;12.10;99.90
13673;DHT22;6909;52.202;9.876;2023-06-14T02:27:17;11.90;99.90
13673;DHT22;6909;52.202;9.876;2023-06-14T02:29:43;11.80;99.90
13673;DHT22;6909;52.202;9.876;2023-06-14T02:32:11;11.70;99.90
13673;DHT22;6909;52.202;9.876;2023-06-14T02:34:38;11.60;99.90
13673;DHT22;6909;52.202;9.876;2023-06-14T02:37:06;11.30;99.90
13673;DHT22;6909;52.202;9.876;2023-06-14T02:39:33;11.10;99.90
13673;DHT22;6909;52.202;9.876;2023-06-14T02:42:00;10.80;99.90
13673;DHT22;6909;52.202;9.876;2023-06-14T02:44:27;10.60;99.90
13673;DHT22;6909;52.202;9.876;2023-06-14T02:46:53;10.60;99.90
13673;DHT22;6909;52.202;9.876;2023-06-14T02:49:22;10.50;1.00
13673;DHT22;6909;52.202;9.876;2023-06-14T02:51:49;10.40;1.00
13673;DHT22;6909;52.202;9.876;2023-06-14T02:54:15;10.50;1.00
13673;DHT22;6909;52.202;9.876;2023-06-14T02:56:42;10.50;1.00
13673;DHT22;6909;52.202;9.876;2023-06-14T02:59:09;10.90;1.00
13673;DHT22;6909;52.202;9.876;2023-06-14T03:01:35;11.00;1.00
13673;DHT22;6909;52.202;9.876;2023-06-14T03:04:04;10.90;1.00
13673;DHT22;6909;52.202;9.876;2023-06-14T03:06:32;11.20;1.00
13673;DHT22;6909;52.202;9.876;2023-06-14T03:09:00;11.20;1.00
13673;DHT22;6909;52.202;9.876;2023-06-14T03:11:30;11.40;1.00
13673;DHT22;6909;52.202;9.876;2023-06-14T03:13:56;11.30;1.00
13673;DHT22;6909;52.202;9.876;2023-06-14T03:16:23;11.30;1.00
13673;DHT22;6909;52.202;9.876;2023-06-14T03:18:50;11.40;1.00
13673;DHT22;6909;52.202;9.876;2023-06-14T03:21:18;11.30;1.00
13673;DHT22;6909;52.202;9.876;2023-06-14T03:23:46;11.20;1.00
13673;DHT22;6909;52.202;9.876;2023-06-14T03:26:13;11.20;1.00
13673;DHT22;6909;52.202;9.876;2023-06-14T03:28:40;11.20;1.00
13673;DHT22;6909;52.202;9.876;2023-06-14T03:31:07;11.10;1.00
13673;DHT22;6909;52.202;9.876;2023-06-14T03:33:34;11.10;1.00
13673;DHT22;6909;52.202;9.876;2023-06-14T03:36:02;11.10;1.00
13673;DHT22;6909;52.202;9.876;2023-06-14T03:38:29;11.20;1.00
13673;DHT22;6909;52.202;9.876;2023-06-14T03:40:57;11.40;1.00
13673;DHT22;6909;52.202;9.876;2023-06-14T03:43:24;11.60;1.00
13673;DHT22;6909;52.202;9.876;2023-06-14T03:45:50;11.60;1.00
13673;DHT22;6909;52.202;9.876;2023-06-14T03:48:17;11.50;1.00
13673;DHT22;6909;52.202;9.876;2023-06-14T03:50:44;11.50;1.00
13673;DHT22;6909;52.202;9.876;2023-06-14T03:53:10;11.40;1.00
13673;DHT22;6909;52.202;9.876;2023-06-14T03:55:37;11.50;1.00
13673;DHT22;6909;52.202;9.876;2023-06-14T03:58:06;11.50;1.00
13673;DHT22;6909;52.202;9.876;2023-06-14T04:00:32;11.60;1.00
13673;DHT22;6909;52.202;9.876;2023-06-14T04:02:59;11.70;1.00
13673;DHT22;6909;52.202;9.876;2023-06-14T04:05:26;11.70;1.00
13673;DHT22;6909;52.202;9.876;2023-06-14T04:07:53;11.90;1.00
13673;DHT22;6909;52.202;9.876;2023-06-14T04:10:21;11.90;1.00
13673;DHT22;6909;52.202;9.876;2023-06-14T04:12:48;11.80;1.00
13673;DHT22;6909;52.202;9.876;2023-06-14T04:15:17;11.90;1.00
13673;DHT22;6909;52.202;9.876;2023-06-14T04:17:44;12.00;1.00
13673;DHT22;6909;52.202;9.876;2023-06-14T04:20:11;12.00;1.00
13673;DHT22;6909;52.202;9.876;2023-06-14T04:22:37;12.10;1.00
13673;DHT22;6909;52.202;9.876;2023-06-14T04:25:04;12.80;1.00
13673;DHT22;6909;52.202;9.876;2023-06-14T04:27:32;14.20;1.00
13673;DHT22;6909;52.202;9.876;2023-06-14T04:30:01;15.40;1.00
13673;DHT22;6909;52.202;9.876;2023-06-14T04:32:30;16.40;99.90
13673;DHT22;6909;52.202;9.876;2023-06-14T04:34:59;18.10;99.90
13673;DHT22;6909;52.202;9.876;2023-06-14T04:37:28;18.30;99.90
13673;DHT22;6909;52.202;9.876;2023-06-14T04:39:56;18.10;99.90
13673;DHT22;6909;52.202;9.876;2023-06-14T04:42:23;18.40;99.90
13673;DHT22;6909;52.202;9.876;2023-06-14T04:44:50;18.10;99.90
13673;DHT22;6909;52.202;9.876;2023-06-14T04:47:20;18.50;98.70
13673;DHT22;6909;52.202;9.876;2023-06-14T04:49:48;18.80;62.20
13673;DHT22;6909;52.202;9.876;2023-06-14T04:52:16;19.00;31.20
13673;DHT22;6909;52.202;9.876;2023-06-14T04:54:42;19.00;1.00
13673;DHT22;6909;52.202;9.876;2023-06-14T04:57:10;18.50;1.00
13673;DHT22;6909;52.202;9.876;2023-06-14T04:59:39;19.10;1.00
13673;DHT22;6909;52.202;9.876;2023-06-14T05:02:06;19.50;1.00
13673;DHT22;6909;52.202;9.876;2023-06-14T05:04:34;19.90;1.00
13673;DHT22;6909;52.202;9.876;2023-06-14T05:07:06;18.80;1.00
13673;DHT22;6909;52.202;9.876;2023-06-14T05:09:33;19.20;1.00
13673;DHT22;6909;52.202;9.876;2023-06-14T05:12:00;19.30;1.00
13673;DHT22;6909;52.202;9.876;2023-06-14T05:14:26;19.40;1.00
13673;DHT22;6909;52.202;9.876;2023-06-14T05:16:53;19.30;1.00
13673;DHT22;6909;52.202;9.876;2023-06-14T05:19:20;20.30;1.00
13673;DHT22;6909;52.202;9.876;2023-06-14T05:21:47;21.00;1.00
13673;DHT22;6909;52.202;9.876;2023-06-14T05:24:15;21.70;1.00
13673;DHT22;6909;52.202;9.876;2023-06-14T05:26:43;21.80;1.00
13673;DHT22;6909;52.202;9.876;2023-06-14T05:29:10;21.10;1.00
13673;DHT22;6909;52.202;9.876;2023-06-14T05:31:37;20.30;1.00
13673;DHT22;6909;52.202;9.876;2023-06-14T05:34:04;20.80;1.00
13673;DHT22;6909;52.202;9.876;2023-06-14T05:36:30;20.90;1.00
13673;DHT22;6909;52.202;9.876;2023-06-14T05:38:57;21.30;1.00
13673;DHT22;6909;52.202;9.876;2023-06-14T05:41:26;21.40;1.00
13673;DHT22;6909;52.202;9.876;2023-06-14T05:43:54;21.50;1.00
13673;DHT22;6909;52.202;9.876;2023-06-14T05:46:21;21.10;1.00
13673;DHT22;6909;52.202;9.876;2023-06-14T05:48:50;20.60;1.00
13673;DHT22;6909;52.202;9.876;2023-06-14T05:51:17;20.60;1.00
13673;DHT22;6909;52.202;9.876;2023-06-14T05:53:45;21.10;1.00
13673;DHT22;6909;52.202;9.876;2023-06-14T05:56:12;21.00;1.00
13673;DHT22;6909;52.202;9.876;2023-06-14T05:58:40;20.80;1.00
13673;DHT22;6909;52.202;9.876;2023-06-14T06:01:07;21.20;1.00
13673;DHT22;6909;52.202;9.876;2023-06-14T06:03:33;21.70;1.00
13673;DHT22;6909;52.202;9.876;2023-06-14T06:06:00;20.70;1.00
13673;DHT22;6909;52.202;9.876;2023-06-14T06:08:28;21.00;1.00
13673;DHT22;6909;52.202;9.876;2023-06-14T06:10:55;20.70;1.00
13673;DHT22;6909;52.202;9.876;2023-06-14T06:13:22;20.80;1.00
13673;DHT22;6909;52.202;9.876;2023-06-14T06:15:50;21.80;1.00
13673;DHT22;6909;52.202;9.876;2023-06-14T06:18:16;21.10;1.00
13673;DHT22;6909;52.202;9.876;2023-06-14T06:20:43;21.70;1.00
13673;DHT22;6909;52.202;9.876;2023-06-14T06:23:10;22.50;1.00
13673;DHT22;6909;52.202;9.876;2023-06-14T06:25:37;21.70;1.00
13673;DHT22;6909;52.202;9.876;2023-06-14T06:28:04;22.00;1.00
13673;DHT22;6909;52.202;9.876;2023-06-14T06:30:30;23.60;1.00
13673;DHT22;6909;52.202;9.876;2023-06-14T06:32:58;23.70;1.00
13673;DHT22;6909;52.202;9.876;2023-06-14T06:35:25;23.40;1.00
13673;DHT22;6909;52.202;9.876;2023-06-14T06:37:52;23.80;1.00
13673;DHT22;6909;52.202;9.876;2023-06-14T06:40:19;23.50;1.00
13673;DHT22;6909;52.202;9.876;2023-06-14T06:42:45;21.60;1.00
13673;DHT22;6909;52.202;9.876;2023-06-14T06:45:12;22.00;1.00
13673;DHT22;6909;52.202;9.876;2023-06-14T06:47:39;21.80;1.00
13673;DHT22;6909;52.202;9.876;2023-06-14T06:50:08;22.70;1.00
13673;DHT22;6909;52.202;9.876;2023-06-14T06:52:34;24.30;1.00
13673;DHT22;6909;52.202;9.876;2023-06-14T06:55:01;23.50;1.00
13673;DHT22;6909;52.202;9.876;2023-06-14T06:57:28;22.80;1.00
13673;DHT22;6909;52.202;9.876;2023-06-14T06:59:55;23.60;1.00
13673;DHT22;6909;52.202;9.876;2023-06-14T07:02:22;24.70;1.00
13673;DHT22;6909;52.202;9.876;2023-06-14T07:04:48;25.30;1.00
13673;DHT22;6909;52.202;9.876;2023-06-14T07:07:17;25.10;1.00
13673;DHT22;6909;52.202;9.876;2023-06-14T07:09:44;23.70;1.00
13673;DHT22;6909;52.202;9.876;2023-06-14T07:12:11;23.80;1.00
13673;DHT22;6909;52.202;9.876;2023-06-14T07:14:38;24.20;1.00
13673;DHT22;6909;52.202;9.876;2023-06-14T07:17:04;22.70;1.00
13673;DHT22;6909;52.202;9.876;2023-06-14T07:19:31;23.30;1.00
13673;DHT22;6909;52.202;9.876;2023-06-14T07:21:58;23.50;1.00
13673;DHT22;6909;52.202;9.876;2023-06-14T07:24:26;23.30;1.00
13673;DHT22;6909;52.202;9.876;2023-06-14T07:26:53;23.50;1.00
13673;DHT22;6909;52.202;9.876;2023-06-14T07:29:20;23.40;1.00
13673;DHT22;6909;52.202;9.876;2023-06-14T07:31:47;23.70;1.00
13673;DHT22;6909;52.202;9.876;2023-06-14T07:34:14;23.80;1.00
13673;DHT22;6909;52.202;9.876;2023-06-14T07:36:40;23.90;1.00
13673;DHT22;6909;52.202;9.876;2023-06-14T07:39:09;23.40;1.00
13673;DHT22;6909;52.202;9.876;2023-06-14T07:41:38;23.10;1.00
13673;DHT22;6909;52.202;9.876;2023-06-14T07:44:04;23.00;1.00
13673;DHT22;6909;52.202;9.876;2023-06-14T07:46:31;22.90;1.00
13673;DHT22;6909;52.202;9.876;2023-06-14T07:48:59;22.40;1.00
13673;DHT22;6909;52.202;9.876;2023-06-14T07:51:26;23.10;1.00
13673;DHT22;6909;52.202;9.876;2023-06-14T07:53:53;22.00;1.00
13673;DHT22;6909;52.202;9.876;2023-06-14T07:56:20;22.60;1.00
13673;DHT22;6909;52.202;9.876;2023-06-14T07:58:48;22.80;1.00
13673;DHT22;6909;52.202;9.876;2023-06-14T08:01:15;22.30;1.00
13673;DHT22;6909;52.202;9.876;2023-06-14T08:03:42;22.70;1.00
13673;DHT22;6909;52.202;9.876;2023-06-14T08:06:09;23.60;1.00
13673;DHT22;6909;52.202;9.876;2023-06-14T08:08:36;23.60;1.00
13673;DHT22;6909;52.202;9.876;2023-06-14T08:11:02;24.50;1.00
13673;DHT22;6909;52.202;9.876;2023-06-14T08:13:29;24.30;1.00
13673;DHT22;6909;52.202;9.876;2023-06-14T08:15:57;23.60;1.00
13673;DHT22;6909;52.202;9.876;2023-06-14T08:18:26;22.00;1.00
13673;DHT22;6909;52.202;9.876;2023-06-14T08:20:52;22.90;1.00
13673;DHT22;6909;52.202;9.876;2023-06-14T08:23:19;21.50;1.00
13673;DHT22;6909;52.202;9.876;2023-06-14T08:25:47;21.40;1.00
13673;DHT22;6909;52.202;9.876;2023-06-14T08:28:13;22.30;1.00
13673;DHT22;6909;52.202;9.876;2023-06-14T08:30:41;21.50;1.00
13673;DHT22;6909;52.202;9.876;2023-06-14T08:33:09;22.20;1.00
13673;DHT22;6909;52.202;9.876;2023-06-14T08:35:36;22.40;1.00
13673;DHT22;6909;52.202;9.876;2023-06-14T08:38:05;22.90;1.00
13673;DHT22;6909;52.202;9.876;2023-06-14T08:40:36;22.80;1.00
13673;DHT22;6909;52.202;9.876;2023-06-14T08:43:03;22.70;1.00
13673;DHT22;6909;52.202;9.876;2023-06-14T08:45:30;23.00;1.00
13673;DHT22;6909;52.202;9.876;2023-06-14T08:47:57;22.70;1.00
13673;DHT22;6909;52.202;9.876;2023-06-14T08:50:27;22.90;1.00
13673;DHT22;6909;52.202;9.876;2023-06-14T08:52:57;22.70;1.00
13673;DHT22;6909;52.202;9.876;2023-06-14T08:55:27;22.70;1.00
13673;DHT22;6909;52.202;9.876;2023-06-14T08:57:55;22.90;1.00
13673;DHT22;6909;52.202;9.876;2023-06-14T09:00:23;22.60;1.00
13673;DHT22;6909;52.202;9.876;2023-06-14T09:02:50;21.60;1.00
13673;DHT22;6909;52.202;9.876;2023-06-14T09:05:22;21.50;1.00
13673;DHT22;6909;52.202;9.876;2023-06-14T09:07:50;21.50;1.00
13673;DHT22;6909;52.202;9.876;2023-06-14T09:10:18;22.30;1.00
13673;DHT22;6909;52.202;9.876;2023-06-14T09:12:46;22.30;1.00
13673;DHT22;6909;52.202;9.876;2023-06-14T09:15:13;23.00;1.00
13673;DHT22;6909;52.202;9.876;2023-06-14T09:17:40;22.30;1.00
13673;DHT22;6909;52.202;9.876;2023-06-14T09:20:08;22.60;1.00
13673;DHT22;6909;52.202;9.876;2023-06-14T09:22:36;21.80;1.00
13673;DHT22;6909;52.202;9.876;2023-06-14T09:25:05;21.40;1.00
13673;DHT22;6909;52.202;9.876;2023-06-14T09:27:33;21.00;1.00
13673;DHT22;6909;52.202;9.876;2023-06-14T09:30:01;20.80;1.00
13673;DHT22;6909;52.202;9.876;2023-06-14T09:32:28;19.80;1.00
13673;DHT22;6909;52.202;9.876;2023-06-14T09:34:56;20.20;1.00
13673;DHT22;6909;52.202;9.876;2023-06-14T09:37:29;20.40;1.00
13673;DHT22;6909;52.202;9.876;2023-06-14T09:39:56;20.60;1.00
13673;DHT22;6909;52.202;9.876;2023-06-14T09:42:25;20.50;1.00
13673;DHT22;6909;52.202;9.876;2023-06-14T09:44:55;20.40;1.00
13673;DHT22;6909;52.202;9.876;2023-06-14T09:47:23;20.10;1.00
13673;DHT22;6909;52.202;9.876;2023-06-14T09:49:50;20.00;1.00
13673;DHT22;6909;52.202;9.876;2023-06-14T09:52:18;20.10;1.00
13673;DHT22;6909;52.202;9.876;2023-06-14T09:54:46;20.00;1.00
13673;DHT22;6909;52.202;9.876;2023-06-14T09:57:15;20.00;1.00
13673;DHT22;6909;52.202;9.876;2023-06-14T09:59:45;20.00;1.00
13673;DHT22;6909;52.202;9.876;2023-06-14T10:02:20;20.10;1.00
13673;DHT22;6909;52.202;9.876;2023-06-14T10:04:53;20.30;1.00
13673;DHT22;6909;52.202;9.876;2023-06-14T10:07:24;20.30;1.00
13673;DHT22;6909;52.202;9.876;2023-06-14T10:09:53;20.70;1.00
13673;DHT22;6909;52.202;9.876;2023-06-14T10:12:20;20.70;1.00
13673;DHT22;6909;52.202;9.876;2023-06-14T10:14:50;20.60;1.00
13673;DHT22;6909;52.202;9.876;2023-06-14T10:17:24;20.50;1.00
13673;DHT22;6909;52.202;9.876;2023-06-14T10:19:58;20.40;1.00
13673;DHT22;6909;52.202;9.876;2023-06-14T10:22:33;20.30;1.00
13673;DHT22;6909;52.202;9.876;2023-06-14T10:25:02;20.30;1.00
13673;DHT22;6909;52.202;9.876;2023-06-14T10:27:33;20.50;1.00
13673;DHT22;6909;52.202;9.876;2023-06-14T10:30:07;20.70;1.00
13673;DHT22;6909;52.202;9.876;2023-06-14T10:32:34;21.00;1.00
13673;DHT22;6909;52.202;9.876;2023-06-14T10:35:05;21.00;1.00
13673;DHT22;6909;52.202;9.876;2023-06-14T10:37:32;21.00;1.00
13673;DHT22;6909;52.202;9.876;2023-06-14T10:39:59;21.10;1.00
13673;DHT22;6909;52.202;9.876;2023-06-14T10:42:29;21.40;1.00
13673;DHT22;6909;52.202;9.876;2023-06-14T10:44:58;21.70;1.00
13673;DHT22;6909;52.202;9.876;2023-06-14T10:47:28;21.50;1.00
13673;DHT22;6909;52.202;9.876;2023-06-14T10:49:55;21.40;1.00
13673;DHT22;6909;52.202;9.876;2023-06-14T10:52:26;21.70;1.00
13673;DHT22;6909;52.202;9.876;2023-06-14T10:55:08;21.80;1.00
13673;DHT22;6909;52.202;9.876;2023-06-14T10:57:41;21.60;1.00
13673;DHT22;6909;52.202;9.876;2023-06-14T11:00:09;21.70;1.00
13673;DHT22;6909;52.202;9.876;2023-06-14T11:05:55;21.80;1.00
13673;DHT22;6909;52.202;9.876;2023-06-14T11:08:40;21.60;1.00
13673;DHT22;6909;52.202;9.876;2023-06-14T11:11:13;21.70;1.00
13673;DHT22;6909;52.202;9.876;2023-06-14T11:13:43;21.80;1.00
13673;DHT22;6909;52.202;9.876;2023-06-14T11:16:11;22.30;1.00
13673;DHT22;6909;52.202;9.876;2023-06-14T11:18:38;21.90;1.00
13673;DHT22;6909;52.202;9.876;2023-06-14T11:21:06;22.70;1.00
13673;DHT22;6909;52.202;9.876;2023-06-14T11:23:34;22.70;1.00
13673;DHT22;6909;52.202;9.876;2023-06-14T11:26:01;22.40;1.00
13673;DHT22;6909;52.202;9.876;2023-06-14T11:28:36;22.30;1.00
13673;DHT22;6909;52.202;9.876;2023-06-14T11:31:04;21.90;1.00
13673;DHT22;6909;52.202;9.876;2023-06-14T11:33:31;22.00;1.00
13673;DHT22;6909;52.202;9.876;2023-06-14T11:35:57;22.40;1.00
13673;DHT22;6909;52.202;9.876;2023-06-14T11:38:26;22.40;1.00
13673;DHT22;6909;52.202;9.876;2023-06-14T11:40:53;22.20;1.00
13673;DHT22;6909;52.202;9.876;2023-06-14T11:43:19;22.30;1.00
13673;DHT22;6909;52.202;9.876;2023-06-14T11:45:48;22.10;1.00
13673;DHT22;6909;52.202;9.876;2023-06-14T11:48:15;22.30;1.00
13673;DHT22;6909;52.202;9.876;2023-06-14T11:50:42;21.90;1.00
13673;DHT22;6909;52.202;9.876;2023-06-14T11:53:09;22.10;1.00
13673;DHT22;6909;52.202;9.876;2023-06-14T11:55:38;22.00;1.00
13673;DHT22;6909;52.202;9.876;2023-06-14T11:58:05;21.90;1.00
13673;DHT22;6909;52.202;9.876;2023-06-14T12:00:32;21.80;1.00
13673;DHT22;6909;52.202;9.876;2023-06-14T12:03:01;21.90;1.00
13673;DHT22;6909;52.202;9.876;2023-06-14T12:05:28;21.60;1.00
13673;DHT22;6909;52.202;9.876;2023-06-14T12:07:59;22.00;1.00
13673;DHT22;6909;52.202;9.876;2023-06-14T12:10:27;22.40;1.00
13673;DHT22;6909;52.202;9.876;2023-06-14T12:12:58;22.40;1.00
13673;DHT22;6909;52.202;9.876;2023-06-14T12:15:28;22.30;1.00
13673;DHT22;6909;52.202;9.876;2023-06-14T12:17:55;22.20;1.00
13673;DHT22;6909;52.202;9.876;2023-06-14T12:20:21;22.00;1.00
13673;DHT22;6909;52.202;9.876;2023-06-14T12:22:51;21.90;1.00
13673;DHT22;6909;52.202;9.876;2023-06-14T12:25:26;22.00;1.00
13673;DHT22;6909;52.202;9.876;2023-06-14T12:27:53;22.30;1.00
13673;DHT22;6909;52.202;9.876;2023-06-14T12:30:22;22.20;1.00
13673;DHT22;6909;52.202;9.876;2023-06-14T12:32:48;22.40;1.00
13673;DHT22;6909;52.202;9.876;2023-06-14T12:35:17;22.60;1.00
13673;DHT22;6909;52.202;9.876;2023-06-14T12:37:44;22.70;1.00
13673;DHT22;6909;52.202;9.876;2023-06-14T12:40:11;22.80;1.00
13673;DHT22;6909;52.202;9.876;2023-06-14T12:42:38;22.80;1.00
13673;DHT22;6909;52.202;9.876;2023-06-14T12:45:06;23.30;1.00
13673;DHT22;6909;52.202;9.876;2023-06-14T12:47:34;23.20;1.00
13673;DHT22;6909;52.202;9.876;2023-06-14T12:50:01;22.60;1.00
13673;DHT22;6909;52.202;9.876;2023-06-14T12:52:28;22.40;1.00
13673;DHT22;6909;52.202;9.876;2023-06-14T12:54:55;22.20;1.00
13673;DHT22;6909;52.202;9.876;2023-06-14T12:57:23;22.10;1.00
13673;DHT22;6909;52.202;9.876;2023-06-14T12:59:50;22.40;1.00
13673;DHT22;6909;52.202;9.876;2023-06-14T13:02:17;22.90;1.00
13673;DHT22;6909;52.202;9.876;2023-06-14T13:04:49;23.10;1.00
13673;DHT22;6909;52.202;9.876;2023-06-14T13:07:15;23.00;1.00
13673;DHT22;6909;52.202;9.876;2023-06-14T13:09:43;23.10;1.00
13673;DHT22;6909;52.202;9.876;2023-06-14T13:12:10;23.60;1.00
13673;DHT22;6909;52.202;9.876;2023-06-14T13:14:37;23.30;1.00
13673;DHT22;6909;52.202;9.876;2023-06-14T13:17:05;22.90;1.00
13673;DHT22;6909;52.202;9.876;2023-06-14T13:19:32;22.50;1.00
13673;DHT22;6909;52.202;9.876;2023-06-14T13:22:00;22.40;1.00
13673;DHT22;6909;52.202;9.876;2023-06-14T13:24:27;22.60;1.00
13673;DHT22;6909;52.202;9.876;2023-06-14T13:26:55;22.50;1.00
13673;DHT22;6909;52.202;9.876;2023-06-14T13:29:22;22.50;1.00
13673;DHT22;6909;52.202;9.876;2023-06-14T13:31:49;23.00;1.00
13673;DHT22;6909;52.202;9.876;2023-06-14T13:34:16;23.40;1.00
13673;DHT22;6909;52.202;9.876;2023-06-14T13:36:43;23.80;1.00
13673;DHT22;6909;52.202;9.876;2023-06-14T13:39:11;24.10;1.00
13673;DHT22;6909;52.202;9.876;2023-06-14T13:41:37;24.00;1.00
13673;DHT22;6909;52.202;9.876;2023-06-14T13:44:04;23.60;1.00
13673;DHT22;6909;52.202;9.876;2023-06-14T13:46:31;23.30;1.00
13673;DHT22;6909;52.202;9.876;2023-06-14T13:48:58;23.00;1.00
13673;DHT22;6909;52.202;9.876;2023-06-14T13:51:26;23.10;1.00
13673;DHT22;6909;52.202;9.876;2023-06-14T13:53:53;23.50;1.00
13673;DHT22;6909;52.202;9.876;2023-06-14T13:56:22;23.40;1.00
13673;DHT22;6909;52.202;9.876;2023-06-14T13:58:49;23.30;1.00
13673;DHT22;6909;52.202;9.876;2023-06-14T14:01:16;22.80;1.00
13673;DHT22;6909;52.202;9.876;2023-06-14T14:03:45;22.70;1.00
13673;DHT22;6909;52.202;9.876;2023-06-14T14:06:11;22.60;1.00
13673;DHT22;6909;52.202;9.876;2023-06-14T14:08:38;22.70;1.00
13673;DHT22;6909;52.202;9.876;2023-06-14T14:11:06;22.80;1.00
13673;DHT22;6909;52.202;9.876;2023-06-14T14:13:35;23.00;1.00
13673;DHT22;6909;52.202;9.876;2023-06-14T14:16:03;23.00;1.00
13673;DHT22;6909;52.202;9.876;2023-06-14T14:18:30;23.00;1.00
13673;DHT22;6909;52.202;9.876;2023-06-14T14:20:58;22.70;1.00
13673;DHT22;6909;52.202;9.876;2023-06-14T14:23:26;22.70;1.00
13673;DHT22;6909;52.202;9.876;2023-06-14T14:25:52;22.70;1.00
13673;DHT22;6909;52.202;9.876;2023-06-14T14:28:19;22.80;1.00
13673;DHT22;6909;52.202;9.876;2023-06-14T14:30:48;22.80;1.00
13673;DHT22;6909;52.202;9.876;2023-06-14T14:33:14;23.00;1.00
13673;DHT22;6909;52.202;9.876;2023-06-14T14:35:42;23.20;1.00
13673;DHT22;6909;52.202;9.876;2023-06-14T14:38:11;23.20;1.00
13673;DHT22;6909;52.202;9.876;2023-06-14T14:40:38;23.40;1.00
13673;DHT22;6909;52.202;9.876;2023-06-14T14:43:05;23.50;1.00
13673;DHT22;6909;52.202;9.876;2023-06-14T14:45:32;23.50;1.00
13673;DHT22;6909;52.202;9.876;2023-06-14T14:48:00;23.40;1.00
13673;DHT22;6909;52.202;9.876;2023-06-14T14:50:27;23.20;1.00
13673;DHT22;6909;52.202;9.876;2023-06-14T14:52:54;22.80;1.00
13673;DHT22;6909;52.202;9.876;2023-06-14T14:55:20;22.70;1.00
13673;DHT22;6909;52.202;9.876;2023-06-14T14:57:47;22.80;1.00
13673;DHT22;6909;52.202;9.876;2023-06-14T15:00:14;23.10;1.00
13673;DHT22;6909;52.202;9.876;2023-06-14T15:02:41;23.10;1.00
13673;DHT22;6909;52.202;9.876;2023-06-14T15:05:09;23.10;1.00
13673;DHT22;6909;52.202;9.876;2023-06-14T15:07:39;23.10;1.00
13673;DHT22;6909;52.202;9.876;2023-06-14T15:10:07;23.10;1.00
13673;DHT22;6909;52.202;9.876;2023-06-14T15:12:34;23.00;1.00
13673;DHT22;6909;52.202;9.876;2023-06-14T15:15:02;23.20;1.00
13673;DHT22;6909;52.202;9.876;2023-06-14T15:17:29;23.20;1.00
13673;DHT22;6909;52.202;9.876;2023-06-14T15:19:55;23.10;1.00
13673;DHT22;6909;52.202;9.876;2023-06-14T15:22:23;23.20;1.00
13673;DHT22;6909;52.202;9.876;2023-06-14T15:24:50;23.40;1.00
13673;DHT22;6909;52.202;9.876;2023-06-14T15:27:17;23.10;1.00
13673;DHT22;6909;52.202;9.876;2023-06-14T15:29:44;23.10;1.00
13673;DHT22;6909;52.202;9.876;2023-06-14T15:32:11;23.00;1.00
13673;DHT22;6909;52.202;9.876;2023-06-14T15:34:38;22.90;1.00
13673;DHT22;6909;52.202;9.876;2023-06-14T15:37:05;22.80;1.00
13673;DHT22;6909;52.202;9.876;2023-06-14T15:39:33;22.60;1.00
13673;DHT22;6909;52.202;9.876;2023-06-14T15:42:00;22.50;1.00
13673;DHT22;6909;52.202;9.876;2023-06-14T15:44:27;22.60;1.00
13673;DHT22;6909;52.202;9.876;2023-06-14T15:46:54;22.50;1.00
13673;DHT22;6909;52.202;9.876;2023-06-14T15:49:20;22.70;1.00
13673;DHT22;6909;52.202;9.876;2023-06-14T15:51:47;22.80;1.00
13673;DHT22;6909;52.202;9.876;2023-06-14T15:54:14;22.80;1.00
13673;DHT22;6909;52.202;9.876;2023-06-14T15:56:42;22.80;1.00
13673;DHT22;6909;52.202;9.876;2023-06-14T15:59:08;22.80;1.00
13673;DHT22;6909;52.202;9.876;2023-06-14T16:01:35;23.00;1.00
13673;DHT22;6909;52.202;9.876;2023-06-14T16:04:03;23.10;1.00
13673;DHT22;6909;52.202;9.876;2023-06-14T16:06:29;23.20;1.00